createdAt,value
2023-03-14T00:00:19.193Z,1.10
2023-03-14T00:02:48.168Z,1.77
2023-03-14T00:05:17.327Z,1.17
2023-03-14T00:07:46.021Z,1.00
2023-03-14T00:10:16.128Z,0.65
2023-03-14T00:12:46.401Z,0.93
2023-03-14T00:15:15.315Z,1.00
2023-03-14T00:17:45.848Z,0.93
2023-03-14T00:20:14.993Z,1.83
2023-03-14T00:22:44.653Z,1.60
2023-03-14T00:25:16.725Z,1.45
2023-03-14T00:27:47.109Z,1.00
2023-03-14T00:30:16.052Z,1.70
2023-03-14T00:32:46.097Z,1.35
2023-03-14T00:35:14.812Z,1.48
2023-03-14T00:37:43.753Z,1.85
2023-03-14T00:40:13.755Z,2.65
2023-03-14T00:42:42.547Z,1.67
2023-03-14T00:45:13.369Z,1.65
2023-03-14T00:47:46.756Z,1.23
2023-03-14T00:50:15.369Z,1.20
2023-03-14T00:52:43.907Z,0.95
2023-03-14T00:55:13.128Z,1.85
2023-03-14T00:57:42.053Z,1.33
2023-03-14T01:00:14.601Z,1.00
2023-03-14T01:02:43.407Z,2.25
2023-03-14T01:05:12.733Z,1.00
2023-03-14T01:07:41.253Z,1.38
2023-03-14T01:10:11.412Z,1.25
2023-03-14T01:12:40.098Z,1.58
2023-03-14T01:15:09.448Z,1.55
2023-03-14T01:17:40.565Z,1.55
2023-03-14T01:20:11.128Z,1.52
2023-03-14T01:22:41.384Z,1.13
2023-03-14T01:25:11.130Z,0.98
2023-03-14T01:27:39.814Z,1.45
2023-03-14T01:30:09.793Z,1.63
2023-03-14T01:32:39.751Z,1.35
2023-03-14T01:35:09.506Z,1.17
2023-03-14T01:37:38.075Z,1.35
2023-03-14T01:40:11.813Z,1.98
2023-03-14T01:42:40.161Z,1.50
2023-03-14T01:45:41.946Z,1.90
2023-03-14T01:48:11.771Z,2.65
2023-03-14T01:50:40.393Z,1.80
2023-03-14T01:53:08.790Z,1.85
2023-03-14T01:55:38.853Z,1.35
2023-03-14T01:58:07.712Z,1.45
2023-03-14T02:00:36.082Z,1.42
2023-03-14T02:03:09.913Z,2.33
2023-03-14T02:05:42.769Z,2.30
2023-03-14T02:08:21.448Z,1.80
2023-03-14T02:10:53.185Z,1.40
2023-03-14T02:13:28.303Z,1.48
2023-03-14T02:16:06.121Z,1.73
2023-03-14T02:18:51.966Z,1.95
2023-03-14T02:21:51.778Z,2.15
2023-03-14T02:24:29.458Z,1.92
2023-03-14T02:27:08.176Z,1.35
2023-03-14T02:29:47.307Z,1.85
2023-03-14T02:32:18.818Z,2.17
2023-03-14T02:34:50.690Z,0.93
2023-03-14T02:37:22.999Z,1.38
2023-03-14T02:39:51.811Z,1.10
2023-03-14T02:42:22.875Z,1.70
2023-03-14T02:44:54.132Z,1.50
2023-03-14T02:47:29.296Z,1.20
2023-03-14T02:50:04.251Z,0.80
2023-03-14T02:52:32.664Z,0.95
2023-03-14T02:57:30.733Z,1.00
2023-03-14T03:00:01.114Z,1.17
2023-03-14T03:02:33.939Z,0.73
2023-03-14T03:05:02.458Z,0.70
2023-03-14T03:07:30.871Z,0.95
2023-03-14T03:10:00.888Z,1.02
2023-03-14T03:12:32.655Z,2.10
2023-03-14T03:15:01.039Z,0.50
2023-03-14T03:17:30.046Z,1.15
2023-03-14T03:19:58.375Z,0.93
2023-03-14T03:22:27.036Z,0.80
2023-03-14T03:24:55.463Z,1.05
2023-03-14T03:27:23.992Z,1.10
2023-03-14T03:29:53.925Z,0.63
2023-03-14T03:32:22.293Z,0.70
2023-03-14T03:34:52.279Z,0.70
2023-03-14T03:37:20.795Z,0.95
2023-03-14T03:39:49.556Z,0.90
2023-03-14T03:42:17.822Z,0.47
2023-03-14T03:44:46.396Z,0.90
2023-03-14T03:47:16.706Z,1.23
2023-03-14T03:49:45.047Z,0.80
2023-03-14T03:52:13.530Z,1.50
2023-03-14T03:54:42.007Z,0.95
2023-03-14T03:57:10.578Z,0.70
2023-03-14T03:59:41.189Z,1.10
2023-03-14T04:02:10.444Z,1.40
2023-03-14T04:04:40.632Z,0.90
2023-03-14T04:07:10.447Z,1.08
2023-03-14T04:09:40.053Z,1.10
2023-03-14T04:12:23.302Z,0.85
2023-03-14T04:15:01.739Z,1.08
2023-03-14T04:17:30.074Z,0.90
2023-03-14T04:19:59.862Z,1.00
2023-03-14T04:22:36.390Z,1.00
2023-03-14T04:25:05.614Z,1.00
2023-03-14T04:27:37.995Z,0.90
2023-03-14T04:30:13.189Z,0.85
2023-03-14T04:32:53.219Z,1.10
2023-03-14T04:35:25.203Z,1.20
2023-03-14T04:37:57.713Z,0.80
2023-03-14T04:40:27.049Z,0.63
2023-03-14T04:43:00.507Z,0.63
2023-03-14T04:45:29.092Z,0.93
2023-03-14T04:48:00.339Z,0.75
2023-03-14T04:50:30.382Z,0.75
2023-03-14T04:52:59.129Z,0.80
2023-03-14T04:55:27.782Z,0.98
2023-03-14T04:57:57.609Z,0.50
2023-03-14T05:00:27.191Z,1.10
2023-03-14T05:03:06.430Z,0.52
2023-03-14T05:06:01.924Z,0.80
2023-03-14T05:09:02.680Z,0.80
2023-03-14T05:11:49.732Z,0.50
2023-03-14T05:14:52.867Z,0.57
2023-03-14T05:17:27.099Z,0.60
2023-03-14T05:20:21.881Z,0.95
2023-03-14T05:23:07.554Z,0.57
2023-03-14T05:25:54.003Z,1.15
2023-03-14T05:28:57.751Z,0.55
2023-03-14T05:31:52.286Z,0.60
2023-03-14T05:34:43.160Z,0.43
2023-03-14T05:37:31.799Z,0.40
2023-03-14T05:40:20.460Z,0.70
2023-03-14T05:43:21.200Z,0.70
2023-03-14T05:46:09.694Z,0.75
2023-03-14T05:48:55.976Z,0.73
2023-03-14T05:51:45.928Z,0.50
2023-03-14T05:54:23.532Z,0.50
2023-03-14T05:57:11.891Z,0.63
2023-03-14T05:59:50.716Z,0.85
2023-03-14T06:02:39.502Z,0.47
2023-03-14T06:05:18.534Z,0.52
2023-03-14T06:07:47.247Z,0.60
2023-03-14T06:10:15.725Z,0.50
2023-03-14T06:12:45.749Z,0.73
2023-03-14T06:15:14.307Z,1.45
2023-03-14T06:17:44.564Z,1.40
2023-03-14T06:20:15.129Z,0.35
2023-03-14T06:22:43.780Z,0.43
2023-03-14T06:25:14.455Z,0.85
2023-03-14T06:27:45.300Z,0.57
2023-03-14T06:30:14.044Z,0.88
2023-03-14T06:32:42.470Z,0.50
2023-03-14T06:35:13.937Z,1.33
2023-03-14T06:37:44.933Z,0.98
2023-03-14T06:40:18.024Z,1.15
2023-03-14T06:42:58.894Z,0.80
2023-03-14T06:45:29.721Z,0.80
2023-03-14T06:48:00.176Z,0.57
2023-03-14T06:50:38.278Z,0.65
2023-03-14T06:53:06.703Z,0.65
2023-03-14T06:55:37.482Z,0.80
2023-03-14T06:58:09.091Z,0.60
2023-03-14T07:00:42.894Z,0.80
2023-03-14T07:03:15.213Z,0.50
2023-03-14T07:05:46.900Z,0.70
2023-03-14T07:08:16.332Z,0.65
2023-03-14T07:10:44.710Z,2.15
2023-03-14T07:13:14.663Z,0.70
2023-03-14T07:15:56.214Z,0.52
2023-03-14T07:18:25.186Z,1.27
2023-03-14T07:20:53.501Z,0.68
2023-03-14T07:23:21.830Z,0.52
2023-03-14T07:25:54.861Z,1.10
2023-03-14T07:28:28.367Z,1.52
2023-03-14T07:31:14.127Z,1.58
2023-03-14T07:33:42.880Z,1.42
2023-03-14T07:36:11.987Z,1.08
2023-03-14T07:38:43.628Z,0.90
2023-03-14T07:41:34.699Z,1.15
2023-03-14T07:44:23.109Z,1.35
2023-03-14T07:46:51.408Z,1.02
2023-03-14T07:49:19.751Z,1.70
2023-03-14T07:51:50.155Z,1.42
2023-03-14T07:54:20.255Z,0.90
2023-03-14T07:56:49.796Z,1.17
2023-03-14T07:59:18.152Z,1.98
2023-03-14T08:01:48.269Z,1.30
2023-03-14T08:04:16.998Z,0.85
2023-03-14T08:06:45.465Z,0.70
2023-03-14T08:09:13.997Z,1.45
2023-03-14T08:11:42.477Z,0.82
2023-03-14T08:14:12.175Z,1.05
2023-03-14T08:16:41.064Z,2.05
2023-03-14T08:19:11.393Z,1.10
2023-03-14T08:21:39.784Z,1.00
2023-03-14T08:24:08.665Z,0.68
2023-03-14T08:26:37.006Z,0.65
2023-03-14T08:29:05.899Z,1.52
2023-03-14T08:31:34.448Z,0.88
2023-03-14T08:34:02.965Z,0.63
2023-03-14T08:36:33.502Z,0.80
2023-03-14T08:39:02.230Z,0.68
2023-03-14T08:41:31.044Z,1.02
2023-03-14T08:43:59.507Z,1.05
2023-03-14T08:46:27.894Z,0.60
2023-03-14T08:51:24.714Z,0.90
2023-03-14T08:53:55.208Z,0.82
2023-03-14T08:56:25.919Z,0.73
2023-03-14T08:58:54.500Z,1.13
2023-03-14T09:03:53.732Z,1.05
2023-03-14T09:08:50.265Z,1.27
2023-03-14T09:13:49.754Z,1.35
2023-03-14T09:16:18.118Z,1.25
2023-03-14T09:23:45.762Z,1.95
2023-03-14T09:26:15.663Z,1.40
2023-03-14T09:28:45.853Z,1.45
2023-03-14T09:31:16.080Z,1.60
2023-03-14T09:33:45.734Z,1.20
2023-03-14T09:36:15.495Z,1.08
2023-03-14T09:38:44.323Z,1.00
2023-03-14T09:41:20.235Z,0.70
2023-03-14T09:43:53.592Z,0.68
2023-03-14T09:46:23.686Z,1.20
2023-03-14T09:48:52.244Z,0.77
2023-03-14T09:53:53.972Z,0.82
2023-03-14T09:56:25.805Z,0.90
2023-03-14T09:58:59.232Z,0.55
2023-03-14T10:01:32.529Z,1.00
2023-03-14T10:04:05.136Z,0.90
2023-03-14T10:06:35.875Z,0.63
2023-03-14T10:09:06.749Z,0.77
2023-03-14T10:11:35.302Z,0.73
2023-03-14T10:14:09.047Z,0.85
2023-03-14T10:16:39.253Z,1.02
2023-03-14T10:19:11.846Z,0.85
2023-03-14T10:21:42.196Z,0.68
2023-03-14T10:24:19.825Z,0.80
2023-03-14T10:26:52.348Z,0.65
2023-03-14T10:29:23.789Z,0.73
2023-03-14T10:31:57.585Z,0.60
2023-03-14T10:34:28.540Z,1.25
2023-03-14T10:37:00.427Z,1.10
2023-03-14T10:39:42.604Z,1.13
2023-03-14T10:42:19.648Z,1.67
2023-03-14T10:44:53.952Z,2.58
2023-03-14T10:47:25.988Z,0.52
2023-03-14T10:49:54.710Z,1.65
2023-03-14T10:52:31.198Z,1.58
2023-03-14T10:55:16.655Z,1.50
2023-03-14T10:57:46.230Z,0.77
2023-03-14T11:00:23.265Z,0.57
2023-03-14T11:03:06.801Z,0.85
2023-03-14T11:05:41.409Z,1.02
2023-03-14T11:08:13.670Z,0.57
2023-03-14T11:10:44.829Z,0.47
2023-03-14T11:13:22.551Z,1.27
2023-03-14T11:16:04.219Z,0.85
2023-03-14T11:18:59.661Z,1.30
2023-03-14T11:21:34.058Z,0.40
2023-03-14T11:24:19.609Z,0.65
2023-03-14T11:26:53.905Z,1.70
2023-03-14T11:29:30.748Z,1.27
2023-03-14T11:32:05.091Z,1.08
2023-03-14T11:34:42.029Z,0.75
2023-03-14T11:37:19.682Z,0.45
2023-03-14T11:39:58.208Z,0.60
2023-03-14T11:42:29.349Z,0.50
2023-03-14T11:44:59.674Z,0.40
2023-03-14T11:47:35.459Z,0.50
2023-03-14T11:50:10.388Z,0.40
2023-03-14T11:52:44.560Z,0.47
2023-03-14T11:55:20.169Z,0.70
2023-03-14T11:57:52.348Z,0.30
2023-03-14T12:00:23.312Z,0.22
2023-03-14T12:03:00.216Z,0.30
2023-03-14T12:05:48.005Z,0.30
2023-03-14T12:08:40.884Z,0.20
2023-03-14T12:11:15.590Z,0.35
2023-03-14T12:13:50.299Z,0.20
2023-03-14T12:16:34.887Z,0.20
2023-03-14T12:19:27.799Z,0.40
2023-03-14T12:22:00.590Z,0.32
2023-03-14T12:24:33.023Z,0.10
2023-03-14T12:27:02.893Z,0.52
2023-03-14T12:29:32.533Z,0.50
2023-03-14T12:32:23.979Z,0.25
2023-03-14T12:34:53.915Z,0.40
2023-03-14T12:37:29.729Z,0.17
2023-03-14T12:40:07.229Z,0.20
2023-03-14T12:42:46.075Z,0.25
2023-03-14T12:45:33.057Z,0.17
2023-03-14T12:48:11.861Z,0.40
2023-03-14T12:50:47.466Z,0.43
2023-03-14T12:53:46.513Z,0.22
2023-03-14T12:56:27.987Z,0.20
2023-03-14T12:59:23.965Z,0.10
2023-03-14T13:01:58.366Z,0.00
2023-03-14T13:04:39.608Z,0.10
2023-03-14T13:07:14.574Z,0.00
2023-03-14T13:10:21.679Z,0.10
2023-03-14T13:12:53.629Z,0.30
2023-03-14T13:15:33.823Z,0.13
2023-03-14T13:18:06.007Z,0.40
2023-03-14T13:20:39.528Z,0.10
2023-03-14T13:23:22.527Z,0.20
2023-03-14T13:25:51.760Z,0.20
2023-03-14T13:28:20.931Z,0.30
2023-03-14T13:30:51.840Z,0.60
2023-03-14T13:33:23.139Z,1.20
2023-03-14T13:35:57.888Z,0.65
2023-03-14T13:38:29.356Z,0.85
2023-03-14T13:41:01.357Z,0.45
2023-03-14T13:43:33.721Z,0.52
2023-03-14T13:46:07.281Z,0.52
2023-03-14T13:48:41.638Z,0.85
2023-03-14T13:51:14.382Z,0.40
2023-03-14T13:53:50.158Z,0.40
2023-03-14T13:56:20.413Z,0.68
2023-03-14T13:58:49.794Z,0.30
2023-03-14T14:01:20.321Z,0.22
2023-03-14T14:03:52.563Z,0.28
2023-03-14T14:06:39.725Z,0.30
2023-03-14T14:09:20.473Z,0.20
2023-03-14T14:12:11.358Z,0.68
2023-03-14T14:14:44.785Z,0.75
2023-03-14T14:17:17.125Z,0.45
2023-03-14T14:19:48.067Z,0.40
2023-03-14T14:22:17.201Z,3.08
2023-03-14T14:24:48.824Z,2.13
2023-03-14T14:27:19.685Z,1.85
2023-03-14T14:30:00.749Z,1.30
2023-03-14T14:32:29.380Z,1.80
2023-03-14T14:35:00.663Z,1.23
2023-03-14T14:37:30.770Z,0.20
2023-03-14T14:40:02.546Z,1.58
2023-03-14T14:42:33.488Z,1.13
2023-03-14T14:45:05.134Z,2.30
2023-03-14T14:47:33.727Z,1.27
2023-03-14T14:50:05.990Z,1.08
2023-03-14T14:52:42.133Z,1.75
2023-03-14T14:55:20.414Z,2.63
2023-03-14T15:00:24.123Z,3.35
2023-03-14T15:02:56.298Z,1.20
2023-03-14T15:05:27.048Z,1.80
2023-03-14T15:07:56.439Z,1.10
2023-03-14T15:10:27.829Z,0.30
2023-03-14T15:12:56.429Z,0.45
2023-03-14T15:15:25.016Z,1.58
2023-03-14T15:20:24.696Z,1.15
2023-03-14T15:22:53.445Z,1.23
2023-03-14T15:25:47.381Z,0.63
2023-03-14T15:28:20.941Z,1.08
2023-03-14T15:30:50.170Z,1.42
2023-03-14T15:33:19.364Z,0.65
2023-03-14T15:35:48.488Z,0.57
2023-03-14T15:38:22.093Z,2.15
2023-03-14T15:40:51.741Z,2.28
2023-03-14T15:43:21.895Z,2.72
2023-03-14T15:45:51.683Z,2.97
2023-03-14T15:48:22.247Z,1.58
2023-03-14T15:50:50.753Z,10.27
2023-03-14T15:55:48.028Z,15.60
2023-03-14T15:58:21.724Z,8.32
2023-03-14T16:00:52.854Z,5.85
2023-03-14T16:03:21.292Z,4.25
2023-03-14T16:08:18.890Z,5.78
2023-03-14T16:10:48.440Z,9.55
2023-03-14T16:13:17.762Z,7.57
2023-03-14T16:15:57.801Z,3.17
2023-03-14T16:18:26.841Z,3.40
2023-03-14T16:20:56.688Z,3.00
2023-03-14T16:23:25.826Z,1.75
2023-03-14T16:25:55.486Z,1.67
2023-03-14T16:28:24.874Z,2.22
2023-03-14T16:30:53.800Z,1.00
2023-03-14T16:33:25.818Z,1.48
2023-03-14T16:35:58.952Z,1.17
2023-03-14T16:38:31.542Z,0.77
2023-03-14T16:41:03.975Z,2.08
2023-03-14T16:43:34.045Z,1.77
2023-03-14T16:46:02.741Z,0.73
2023-03-14T16:48:32.474Z,1.30
2023-03-14T16:51:00.927Z,1.15
2023-03-14T16:56:00.815Z,1.17
2023-03-14T16:58:30.380Z,0.80
2023-03-14T17:00:59.252Z,0.88
2023-03-14T17:03:28.191Z,1.10
2023-03-14T17:05:57.845Z,1.50
2023-03-14T17:08:26.192Z,1.70
2023-03-14T17:10:55.167Z,1.70
2023-03-14T17:13:25.908Z,18.48
2023-03-14T17:15:56.088Z,8.88
2023-03-14T17:18:24.951Z,7.90
2023-03-14T17:20:53.631Z,2.95
2023-03-14T17:23:24.627Z,2.35
2023-03-14T17:25:53.308Z,4.82
2023-03-14T17:28:23.650Z,4.15
2023-03-14T17:30:53.149Z,4.43
2023-03-14T17:33:21.601Z,3.05
2023-03-14T17:35:49.893Z,2.95
2023-03-14T17:40:50.279Z,2.40
2023-03-14T17:43:19.223Z,5.97
2023-03-14T17:45:47.611Z,4.00
2023-03-14T17:48:16.055Z,2.58
2023-03-14T17:53:12.689Z,5.60
2023-03-14T17:55:41.698Z,4.60
2023-03-14T17:58:12.913Z,2.40
2023-03-14T18:00:41.229Z,2.83
2023-03-14T18:05:40.473Z,10.35
2023-03-14T18:08:11.533Z,10.55
2023-03-14T18:10:40.976Z,9.02
2023-03-14T18:13:09.822Z,9.05
2023-03-14T18:15:39.750Z,6.10
2023-03-14T18:18:08.044Z,9.07
2023-03-14T18:23:07.234Z,6.40
2023-03-14T18:25:35.659Z,7.82
2023-03-14T18:28:04.335Z,7.07
2023-03-14T18:30:32.593Z,4.53
2023-03-14T18:35:30.744Z,6.18
2023-03-14T18:37:59.220Z,8.35
2023-03-14T18:40:27.766Z,9.52
2023-03-14T18:42:56.933Z,6.78
2023-03-14T18:45:25.174Z,6.93
2023-03-14T18:50:23.443Z,15.63
2023-03-14T18:52:52.072Z,15.85
2023-03-14T18:55:20.420Z,17.95
2023-03-14T18:57:48.827Z,12.57
2023-03-14T19:00:19.100Z,11.38
2023-03-14T19:02:47.576Z,12.48
2023-03-14T19:05:16.175Z,13.98
2023-03-14T19:07:47.130Z,10.95
2023-03-14T19:10:15.433Z,9.23
2023-03-14T19:15:13.091Z,6.45
2023-03-14T19:17:41.361Z,6.10
2023-03-14T19:20:11.866Z,6.70
2023-03-14T19:22:40.168Z,5.78
2023-03-14T19:25:11.444Z,5.53
2023-03-14T19:27:40.226Z,5.53
2023-03-14T19:30:09.983Z,5.55
2023-03-14T19:32:38.394Z,5.15
2023-03-14T19:35:07.834Z,5.65
2023-03-14T19:37:36.449Z,17.88
2023-03-14T19:40:07.154Z,21.20
2023-03-14T19:42:38.573Z,19.20
2023-03-14T19:45:08.315Z,22.70
2023-03-14T19:47:37.719Z,25.38
2023-03-14T19:50:10.223Z,19.33
2023-03-14T19:52:46.830Z,16.67
2023-03-14T19:55:21.830Z,10.57
2023-03-14T19:57:53.610Z,14.10
2023-03-14T20:00:29.303Z,10.63
2023-03-14T20:03:05.304Z,19.45
2023-03-14T20:05:45.821Z,15.57
2023-03-14T20:08:20.494Z,16.50
2023-03-14T20:10:54.438Z,14.43
2023-03-14T20:13:31.406Z,15.07
2023-03-14T20:16:08.828Z,11.23
2023-03-14T20:18:42.523Z,9.82
2023-03-14T20:21:13.828Z,7.93
2023-03-14T20:23:44.810Z,5.90
2023-03-14T20:26:16.488Z,6.57
2023-03-14T20:28:53.269Z,6.70
2023-03-14T20:31:26.777Z,9.35
2023-03-14T20:34:01.678Z,12.30
2023-03-14T20:36:34.775Z,14.35
2023-03-14T20:39:03.205Z,5.20
2023-03-14T20:41:43.589Z,10.38
2023-03-14T20:44:17.052Z,20.50
2023-03-14T20:46:50.157Z,21.75
2023-03-14T20:49:25.665Z,20.08
2023-03-14T20:51:53.973Z,18.15
2023-03-14T20:54:22.300Z,20.73
2023-03-14T20:56:51.030Z,8.18
2023-03-14T20:59:20.838Z,3.75
2023-03-14T21:01:51.605Z,5.60
2023-03-14T21:04:20.090Z,6.63
2023-03-14T21:06:48.486Z,6.65
2023-03-14T21:09:16.806Z,9.82
2023-03-14T21:11:47.352Z,5.60
2023-03-14T21:14:18.122Z,4.30
2023-03-14T21:16:48.187Z,4.18
2023-03-14T21:19:16.841Z,4.70
2023-03-14T21:21:45.836Z,6.18
2023-03-14T21:24:15.483Z,8.32
2023-03-14T21:26:46.262Z,7.30
2023-03-14T21:29:14.682Z,6.57
2023-03-14T21:31:43.171Z,5.38
2023-03-14T21:34:12.966Z,4.60
2023-03-14T21:36:41.759Z,5.82
2023-03-14T21:39:10.479Z,6.13
2023-03-14T21:41:38.781Z,5.97
2023-03-14T21:44:07.112Z,6.55
2023-03-14T21:46:37.269Z,9.07
2023-03-14T21:49:05.597Z,19.55
2023-03-14T21:51:35.821Z,11.82
2023-03-14T21:54:10.204Z,7.80
2023-03-14T21:56:42.645Z,6.82
2023-03-14T21:59:18.408Z,6.57
2023-03-14T22:01:51.424Z,6.88
2023-03-14T22:04:35.097Z,5.65
2023-03-14T22:07:15.333Z,6.60
2023-03-14T22:09:47.196Z,12.13
2023-03-14T22:12:19.372Z,12.45
2023-03-14T22:14:49.277Z,11.73
2023-03-14T22:17:21.035Z,13.98
2023-03-14T22:19:49.977Z,7.50
2023-03-14T22:22:20.214Z,9.93
2023-03-14T22:24:51.785Z,9.32
2023-03-14T22:27:22.770Z,11.98
2023-03-14T22:29:51.991Z,11.48
2023-03-14T22:32:20.432Z,9.55
2023-03-14T22:34:48.998Z,8.90
2023-03-14T22:37:17.698Z,10.80
2023-03-14T22:39:49.411Z,7.60
2023-03-14T22:42:18.119Z,6.75
2023-03-14T22:44:46.489Z,5.82
2023-03-14T22:47:15.681Z,6.03
2023-03-14T22:49:44.627Z,5.30
2023-03-14T22:52:13.401Z,4.53
2023-03-14T22:54:41.973Z,7.65
2023-03-14T22:57:12.990Z,10.70
2023-03-14T22:59:42.923Z,11.65
2023-03-14T23:02:12.836Z,6.85
2023-03-14T23:04:41.190Z,4.70
2023-03-14T23:07:09.879Z,5.25
2023-03-14T23:09:42.217Z,8.55
2023-03-14T23:12:18.897Z,7.60
2023-03-14T23:14:47.617Z,8.25
2023-03-14T23:17:18.582Z,6.53
2023-03-14T23:19:47.322Z,7.95
2023-03-14T23:22:16.849Z,5.93
2023-03-14T23:24:48.920Z,7.47
2023-03-14T23:27:18.962Z,6.68
2023-03-14T23:29:47.964Z,5.85
2023-03-14T23:32:18.032Z,5.13
2023-03-14T23:34:46.324Z,5.45
2023-03-14T23:37:14.777Z,5.47
2023-03-14T23:39:46.167Z,6.43
2023-03-14T23:42:14.963Z,5.43
2023-03-14T23:44:45.209Z,6.60
2023-03-14T23:47:13.579Z,8.82
2023-03-14T23:49:42.841Z,6.78
2023-03-14T23:52:13.140Z,9.32
2023-03-14T23:54:48.356Z,5.60
2023-03-14T23:57:24.559Z,3.78
2023-03-14T23:59:55.586Z,4.57
